createdAt,value
2023-05-18T00:00:48.520Z,95441.00
2023-05-18T00:01:48.565Z,95443.00
2023-05-18T00:02:48.827Z,95443.00
2023-05-18T00:04:48.820Z,95443.00
2023-05-18T00:05:48.757Z,95445.00
2023-05-18T00:06:48.821Z,95443.00
2023-05-18T00:07:48.881Z,95443.00
2023-05-18T00:08:48.931Z,95439.00
2023-05-18T00:09:49.057Z,95441.00
2023-05-18T00:10:49.013Z,95441.00
2023-05-18T00:11:49.048Z,95441.00
2023-05-18T00:12:49.054Z,95439.00
2023-05-18T00:13:49.083Z,95439.00
2023-05-18T00:14:49.145Z,95439.00
2023-05-18T00:15:49.175Z,95439.00
2023-05-18T00:16:49.196Z,95439.00
2023-05-18T00:17:49.245Z,95441.00
2023-05-18T00:18:49.265Z,95439.00
2023-05-18T00:19:49.240Z,95437.00
2023-05-18T00:20:49.345Z,95435.00
2023-05-18T00:21:49.375Z,95435.00
2023-05-18T00:22:49.339Z,95435.00
2023-05-18T00:23:49.358Z,95435.00
2023-05-18T00:24:49.418Z,95435.00
2023-05-18T00:25:49.419Z,95437.00
2023-05-18T00:26:49.447Z,95437.00
2023-05-18T00:27:49.453Z,95439.00
2023-05-18T00:28:49.514Z,95439.00
2023-05-18T00:29:49.558Z,95437.00
2023-05-18T00:30:49.593Z,95441.00
2023-05-18T00:31:49.608Z,95437.00
2023-05-18T00:32:49.679Z,95439.00
2023-05-18T00:33:49.609Z,95439.00
2023-05-18T00:34:49.653Z,95437.00
2023-05-18T00:35:49.653Z,95437.00
2023-05-18T00:36:49.645Z,95435.00
2023-05-18T00:37:49.721Z,95437.00
2023-05-18T00:38:49.823Z,95435.00
2023-05-18T00:39:49.900Z,95433.00
2023-05-18T00:40:49.978Z,95435.00
2023-05-18T00:41:50.063Z,95431.00
2023-05-18T00:42:50.159Z,95429.00
2023-05-18T00:43:50.143Z,95429.00
2023-05-18T00:44:50.165Z,95429.00
2023-05-18T00:45:50.260Z,95429.00
2023-05-18T00:46:50.174Z,95431.00
2023-05-18T00:47:50.182Z,95429.00
2023-05-18T00:48:50.207Z,95429.00
2023-05-18T00:49:50.251Z,95429.00
2023-05-18T00:50:50.356Z,95425.00
2023-05-18T00:51:50.425Z,95423.00
2023-05-18T00:52:50.497Z,95427.00
2023-05-18T00:53:50.567Z,95425.00
2023-05-18T00:54:50.683Z,95425.00
2023-05-18T00:55:50.741Z,95425.00
2023-05-18T00:56:50.740Z,95425.00
2023-05-18T00:57:50.783Z,95425.00
2023-05-18T00:58:50.777Z,95427.00
2023-05-18T00:59:50.790Z,95425.00
2023-05-18T01:00:50.827Z,95427.00
2023-05-18T01:01:50.797Z,95425.00
2023-05-18T01:02:50.958Z,95423.00
2023-05-18T01:03:50.823Z,95423.00
2023-05-18T01:04:50.929Z,95421.00
2023-05-18T01:05:50.838Z,95421.00
2023-05-18T01:06:50.880Z,95421.00
2023-05-18T01:07:50.872Z,95419.00
2023-05-18T01:08:50.910Z,95419.00
2023-05-18T01:09:51.425Z,95419.00
2023-05-18T01:10:50.961Z,95419.00
2023-05-18T01:11:50.936Z,95419.00
2023-05-18T01:12:50.977Z,95417.00
2023-05-18T01:13:51.011Z,95419.00
2023-05-18T01:14:51.021Z,95417.00
2023-05-18T01:15:51.073Z,95417.00
2023-05-18T01:16:51.146Z,95417.00
2023-05-18T01:17:51.150Z,95415.00
2023-05-18T01:18:51.187Z,95417.00
2023-05-18T01:19:51.188Z,95417.00
2023-05-18T01:20:51.174Z,95417.00
2023-05-18T01:21:51.197Z,95415.00
2023-05-18T01:22:51.209Z,95415.00
2023-05-18T01:23:51.206Z,95415.00
2023-05-18T01:24:51.270Z,95415.00
2023-05-18T01:25:51.282Z,95415.00
2023-05-18T01:26:51.391Z,95415.00
2023-05-18T01:27:51.435Z,95413.00
2023-05-18T01:28:51.493Z,95413.00
2023-05-18T01:29:51.923Z,95413.00
2023-05-18T01:30:51.714Z,95413.00
2023-05-18T01:31:51.774Z,95409.00
2023-05-18T01:32:51.847Z,95413.00
2023-05-18T01:33:51.795Z,95407.00
2023-05-18T01:34:51.793Z,95409.00
2023-05-18T01:35:51.793Z,95407.00
2023-05-18T01:36:51.811Z,95405.00
2023-05-18T01:37:51.822Z,95398.00
2023-05-18T01:38:51.844Z,95405.00
2023-05-18T01:39:51.933Z,95398.00
2023-05-18T01:40:51.897Z,95396.00
2023-05-18T01:41:51.900Z,95396.00
2023-05-18T01:42:51.952Z,95396.00
2023-05-18T01:43:51.962Z,95394.00
2023-05-18T01:44:51.968Z,95394.00
2023-05-18T01:45:51.991Z,95396.00
2023-05-18T01:46:52.153Z,95394.00
2023-05-18T01:47:52.298Z,95394.00
2023-05-18T01:48:52.267Z,95392.00
2023-05-18T01:49:52.368Z,95392.00
2023-05-18T01:50:52.379Z,95390.00
2023-05-18T01:51:52.379Z,95394.00
2023-05-18T01:52:52.387Z,95394.00
2023-05-18T01:53:52.423Z,95390.00
2023-05-18T01:54:52.438Z,95392.00
2023-05-18T01:55:52.510Z,95390.00
2023-05-18T01:56:52.483Z,95388.00
2023-05-18T01:57:52.572Z,95390.00
2023-05-18T01:58:52.682Z,95390.00
2023-05-18T01:59:52.680Z,95390.00
2023-05-18T02:00:52.684Z,95394.00
2023-05-18T02:01:59.445Z,95388.00
2023-05-18T02:02:53.771Z,95388.00
2023-05-18T02:03:52.793Z,95388.00
2023-05-18T02:04:52.684Z,95390.00
2023-05-18T02:05:52.693Z,95390.00
2023-05-18T02:06:52.654Z,95388.00
2023-05-18T02:07:52.665Z,95392.00
2023-05-18T02:08:52.640Z,95390.00
2023-05-18T02:09:52.657Z,95390.00
2023-05-18T02:10:52.684Z,95386.00
2023-05-18T02:11:52.665Z,95384.00
2023-05-18T02:12:52.697Z,95386.00
2023-05-18T02:13:52.646Z,95386.00
2023-05-18T02:14:52.613Z,95388.00
2023-05-18T02:15:52.720Z,95386.00
2023-05-18T02:16:52.585Z,95386.00
2023-05-18T02:17:52.629Z,95386.00
2023-05-18T02:18:52.704Z,95388.00
2023-05-18T02:19:52.591Z,95386.00
2023-05-18T02:20:52.536Z,95386.00
2023-05-18T02:21:52.552Z,95386.00
2023-05-18T02:22:52.559Z,95384.00
2023-05-18T02:23:52.540Z,95384.00
2023-05-18T02:24:52.555Z,95386.00
2023-05-18T02:25:52.550Z,95386.00
2023-05-18T02:26:52.532Z,95384.00
2023-05-18T02:27:52.517Z,95384.00
2023-05-18T02:28:52.494Z,95384.00
2023-05-18T02:29:52.497Z,95382.00
2023-05-18T02:30:52.507Z,95382.00
2023-05-18T02:31:52.510Z,95380.00
2023-05-18T02:32:52.541Z,95382.00
2023-05-18T02:33:52.476Z,95380.00
2023-05-18T02:34:52.456Z,95380.00
2023-05-18T02:35:52.446Z,95378.00
2023-05-18T02:36:52.461Z,95382.00
2023-05-18T02:37:52.456Z,95378.00
2023-05-18T02:38:52.441Z,95378.00
2023-05-18T02:39:52.554Z,95378.00
2023-05-18T02:40:52.619Z,95380.00
2023-05-18T02:41:52.742Z,95374.00
2023-05-18T02:42:52.835Z,95380.00
2023-05-18T02:43:52.787Z,95376.00
2023-05-18T02:44:52.959Z,95378.00
2023-05-18T02:45:52.803Z,95376.00
2023-05-18T02:46:52.781Z,95376.00
2023-05-18T02:47:52.930Z,95374.00
2023-05-18T02:48:52.915Z,95374.00
2023-05-18T02:49:52.953Z,95374.00
2023-05-18T02:50:52.888Z,95370.00
2023-05-18T02:51:52.902Z,95368.00
2023-05-18T02:52:52.924Z,95368.00
2023-05-18T02:53:52.902Z,95368.00
2023-05-18T02:54:53.024Z,95366.00
2023-05-18T02:55:53.135Z,95368.00
2023-05-18T02:56:53.116Z,95366.00
2023-05-18T02:57:53.108Z,95366.00
2023-05-18T02:58:53.096Z,95364.00
2023-05-18T02:59:53.119Z,95364.00
2023-05-18T03:00:53.141Z,95364.00
2023-05-18T03:01:53.193Z,95364.00
2023-05-18T03:02:53.223Z,95364.00
2023-05-18T03:03:53.199Z,95364.00
2023-05-18T03:04:53.447Z,95364.00
2023-05-18T03:05:53.223Z,95364.00
2023-05-18T03:06:53.276Z,95366.00
2023-05-18T03:07:53.938Z,95366.00
2023-05-18T03:08:53.353Z,95364.00
2023-05-18T03:09:53.447Z,95362.00
2023-05-18T03:10:53.475Z,95364.00
2023-05-18T03:11:53.562Z,95366.00
2023-05-18T03:12:53.586Z,95366.00
2023-05-18T03:13:53.647Z,95364.00
2023-05-18T03:14:53.706Z,95366.00
2023-05-18T03:15:53.777Z,95364.00
2023-05-18T03:16:53.844Z,95364.00
2023-05-18T03:17:53.990Z,95366.00
2023-05-18T03:18:53.962Z,95364.00
2023-05-18T03:19:54.019Z,95364.00
2023-05-18T03:20:54.040Z,95364.00
2023-05-18T03:21:54.149Z,95364.00
2023-05-18T03:22:54.144Z,95360.00
2023-05-18T03:23:54.199Z,95364.00
2023-05-18T03:24:54.265Z,95362.00
2023-05-18T03:25:54.343Z,95364.00
2023-05-18T03:26:54.380Z,95364.00
2023-05-18T03:27:54.469Z,95364.00
2023-05-18T03:28:54.493Z,95362.00
2023-05-18T03:29:54.605Z,95364.00
2023-05-18T03:30:54.658Z,95366.00
2023-05-18T03:31:54.803Z,95366.00
2023-05-18T03:32:54.806Z,95366.00
2023-05-18T03:33:54.858Z,95366.00
2023-05-18T03:34:54.951Z,95366.00
2023-05-18T03:35:54.990Z,95368.00
2023-05-18T03:36:55.011Z,95370.00
2023-05-18T03:37:55.052Z,95370.00
2023-05-18T03:38:55.101Z,95370.00
2023-05-18T03:39:55.117Z,95372.00
2023-05-18T03:40:55.168Z,95374.00
2023-05-18T03:41:55.162Z,95370.00
2023-05-18T03:42:55.196Z,95372.00
2023-05-18T03:43:55.317Z,95374.00
2023-05-18T03:44:55.435Z,95372.00
2023-05-18T03:45:55.502Z,95372.00
2023-05-18T03:46:55.610Z,95374.00
2023-05-18T03:47:55.719Z,95372.00
2023-05-18T03:48:55.691Z,95372.00
2023-05-18T03:49:55.683Z,95372.00
2023-05-18T03:50:55.671Z,95370.00
2023-05-18T03:51:55.681Z,95368.00
2023-05-18T03:52:55.689Z,95370.00
2023-05-18T03:53:55.749Z,95370.00
2023-05-18T03:54:55.842Z,95368.00
2023-05-18T03:55:55.848Z,95370.00
2023-05-18T03:56:55.847Z,95368.00
2023-05-18T03:57:55.847Z,95370.00
2023-05-18T03:58:55.842Z,95370.00
2023-05-18T03:59:55.983Z,95368.00
2023-05-18T04:00:55.927Z,95370.00
2023-05-18T04:01:56.075Z,95368.00
2023-05-18T04:02:56.148Z,95368.00
2023-05-18T04:03:56.141Z,95370.00
2023-05-18T04:04:56.487Z,95370.00
2023-05-18T04:05:56.076Z,95370.00
2023-05-18T04:06:56.074Z,95372.00
2023-05-18T04:07:56.058Z,95372.00
2023-05-18T04:08:56.054Z,95372.00
2023-05-18T04:09:56.109Z,95374.00
2023-05-18T04:10:56.124Z,95374.00
2023-05-18T04:11:56.138Z,95374.00
2023-05-18T04:12:56.139Z,95376.00
2023-05-18T04:13:56.152Z,95374.00
2023-05-18T04:14:56.126Z,95374.00
2023-05-18T04:15:56.159Z,95374.00
2023-05-18T04:16:56.285Z,95374.00
2023-05-18T04:17:56.323Z,95372.00
2023-05-18T04:18:56.350Z,95374.00
2023-05-18T04:19:57.007Z,95374.00
2023-05-18T04:20:56.254Z,95372.00
2023-05-18T04:21:56.270Z,95372.00
2023-05-18T04:22:56.309Z,95374.00
2023-05-18T04:23:56.319Z,95372.00
2023-05-18T04:24:56.304Z,95372.00
2023-05-18T04:25:56.391Z,95374.00
2023-05-18T04:26:56.420Z,95374.00
2023-05-18T04:27:56.411Z,95374.00
2023-05-18T04:28:56.435Z,95374.00
2023-05-18T04:29:56.418Z,95374.00
2023-05-18T04:30:56.449Z,95374.00
2023-05-18T04:31:56.555Z,95374.00
2023-05-18T04:32:56.566Z,95374.00
2023-05-18T04:33:56.528Z,95370.00
2023-05-18T04:34:56.544Z,95370.00
2023-05-18T04:35:56.611Z,95372.00
2023-05-18T04:36:56.538Z,95376.00
2023-05-18T04:37:56.648Z,95372.00
2023-05-18T04:38:56.641Z,95372.00
2023-05-18T04:39:57.044Z,95376.00
2023-05-18T04:40:56.748Z,95376.00
2023-05-18T04:41:56.735Z,95376.00
2023-05-18T04:42:56.765Z,95376.00
2023-05-18T04:43:56.780Z,95378.00
2023-05-18T04:44:56.974Z,95378.00
2023-05-18T04:45:56.835Z,95376.00
2023-05-18T04:46:56.864Z,95380.00
2023-05-18T04:47:56.897Z,95378.00
2023-05-18T04:48:56.856Z,95374.00
2023-05-18T04:49:57.011Z,95376.00
2023-05-18T04:50:56.871Z,95376.00
2023-05-18T04:51:56.937Z,95376.00
2023-05-18T04:52:56.998Z,95376.00
2023-05-18T04:53:56.994Z,95374.00
2023-05-18T04:54:57.040Z,95374.00
2023-05-18T04:55:57.058Z,95376.00
2023-05-18T04:56:57.065Z,95374.00
2023-05-18T04:57:57.306Z,95376.00
2023-05-18T04:58:57.100Z,95374.00
2023-05-18T04:59:57.491Z,95372.00
2023-05-18T05:00:57.250Z,95374.00
2023-05-18T05:01:57.235Z,95374.00
2023-05-18T05:02:57.368Z,95372.00
2023-05-18T05:03:59.536Z,95374.00
2023-05-18T05:04:57.503Z,95372.00
2023-05-18T05:05:57.428Z,95374.00
2023-05-18T05:06:57.446Z,95374.00
2023-05-18T05:07:57.481Z,95372.00
2023-05-18T05:08:57.551Z,95372.00
2023-05-18T05:09:58.018Z,95372.00
2023-05-18T05:10:57.611Z,95374.00
2023-05-18T05:11:57.598Z,95374.00
2023-05-18T05:12:57.666Z,95370.00
2023-05-18T05:13:57.678Z,95370.00
2023-05-18T05:14:57.651Z,95372.00
2023-05-18T05:15:57.736Z,95372.00
2023-05-18T05:16:57.804Z,95372.00
2023-05-18T05:17:58.015Z,95370.00
2023-05-18T05:18:57.931Z,95370.00
2023-05-18T05:19:58.021Z,95370.00
2023-05-18T05:20:57.941Z,95370.00
2023-05-18T05:21:58.065Z,95368.00
2023-05-18T05:22:58.095Z,95370.00
2023-05-18T05:23:58.071Z,95368.00
2023-05-18T05:24:58.527Z,95370.00
2023-05-18T05:25:58.061Z,95370.00
2023-05-18T05:26:58.097Z,95368.00
2023-05-18T05:27:58.089Z,95368.00
2023-05-18T05:28:58.141Z,95370.00
2023-05-18T05:29:58.563Z,95366.00
2023-05-18T05:30:58.212Z,95364.00
2023-05-18T05:31:58.263Z,95364.00
2023-05-18T05:32:58.327Z,95366.00
2023-05-18T05:33:58.320Z,95366.00
2023-05-18T05:34:58.547Z,95362.00
2023-05-18T05:35:58.357Z,95366.00
2023-05-18T05:36:58.305Z,95366.00
2023-05-18T05:37:58.320Z,95366.00
2023-05-18T05:38:58.333Z,95364.00
2023-05-18T05:39:58.523Z,95364.00
2023-05-18T05:40:58.347Z,95362.00
2023-05-18T05:41:58.396Z,95364.00
2023-05-18T05:42:58.412Z,95364.00
2023-05-18T05:43:59.048Z,95364.00
2023-05-18T05:44:58.416Z,95364.00
2023-05-18T05:45:58.429Z,95366.00
2023-05-18T05:46:58.482Z,95364.00
2023-05-18T05:47:58.510Z,95366.00
2023-05-18T05:48:58.486Z,95364.00
2023-05-18T05:49:58.517Z,95362.00
2023-05-18T05:50:58.535Z,95364.00
2023-05-18T05:51:58.533Z,95364.00
2023-05-18T05:52:58.507Z,95362.00
2023-05-18T05:53:58.547Z,95364.00
2023-05-18T05:54:59.048Z,95362.00
2023-05-18T05:55:58.636Z,95362.00
2023-05-18T05:56:58.616Z,95360.00
2023-05-18T05:57:58.646Z,95360.00
2023-05-18T05:58:58.668Z,95360.00
2023-05-18T05:59:59.033Z,95358.00
2023-05-18T06:00:58.740Z,95358.00
2023-05-18T06:01:58.774Z,95360.00
2023-05-18T06:02:58.856Z,95360.00
2023-05-18T06:03:58.780Z,95362.00
2023-05-18T06:04:59.030Z,95360.00
2023-05-18T06:05:58.771Z,95358.00
2023-05-18T06:06:58.770Z,95362.00
2023-05-18T06:07:58.794Z,95360.00
2023-05-18T06:08:58.801Z,95362.00
2023-05-18T06:09:58.801Z,95362.00
2023-05-18T06:10:58.810Z,95364.00
2023-05-18T06:11:58.881Z,95366.00
2023-05-18T06:12:58.923Z,95366.00
2023-05-18T06:13:58.937Z,95366.00
2023-05-18T06:14:58.943Z,95366.00
2023-05-18T06:15:58.906Z,95368.00
2023-05-18T06:16:58.995Z,95368.00
2023-05-18T06:17:58.926Z,95364.00
2023-05-18T06:18:58.923Z,95368.00
2023-05-18T06:19:59.056Z,95368.00
2023-05-18T06:20:58.984Z,95370.00
2023-05-18T06:21:58.947Z,95370.00
2023-05-18T06:22:58.996Z,95368.00
2023-05-18T06:23:59.046Z,95370.00
2023-05-18T06:24:59.045Z,95378.00
2023-05-18T06:25:59.064Z,95378.00
2023-05-18T06:26:59.083Z,95378.00
2023-05-18T06:27:59.025Z,95378.00
2023-05-18T06:28:59.050Z,95374.00
2023-05-18T06:29:59.514Z,95370.00
2023-05-18T06:30:59.083Z,95370.00
2023-05-18T06:31:59.098Z,95370.00
2023-05-18T06:32:59.131Z,95368.00
2023-05-18T06:33:59.074Z,95368.00
2023-05-18T06:34:59.076Z,95368.00
2023-05-18T06:35:59.091Z,95368.00
2023-05-18T06:36:59.114Z,95370.00
2023-05-18T06:37:59.099Z,95370.00
2023-05-18T06:38:59.107Z,95370.00
2023-05-18T06:39:59.139Z,95368.00
2023-05-18T06:40:59.192Z,95368.00
2023-05-18T06:41:59.300Z,95368.00
2023-05-18T06:42:59.386Z,95368.00
2023-05-18T06:43:59.496Z,95368.00
2023-05-18T06:44:59.604Z,95368.00
2023-05-18T06:45:59.726Z,95368.00
2023-05-18T06:46:59.795Z,95370.00
2023-05-18T06:47:59.839Z,95370.00
2023-05-18T06:48:59.805Z,95370.00
2023-05-18T06:49:59.817Z,95372.00
2023-05-18T06:50:59.847Z,95368.00
2023-05-18T06:51:59.827Z,95370.00
2023-05-18T06:52:59.933Z,95374.00
2023-05-18T06:54:00.009Z,95372.00
2023-05-18T06:55:00.167Z,95372.00
2023-05-18T06:56:00.243Z,95374.00
2023-05-18T06:57:00.316Z,95374.00
2023-05-18T06:58:00.332Z,95372.00
2023-05-18T06:59:00.623Z,95376.00
2023-05-18T07:00:00.304Z,95372.00
2023-05-18T07:01:00.407Z,95372.00
2023-05-18T07:02:00.558Z,95370.00
2023-05-18T07:03:00.440Z,95372.00
2023-05-18T07:04:00.431Z,95374.00
2023-05-18T07:05:00.486Z,95374.00
2023-05-18T07:06:00.520Z,95374.00
2023-05-18T07:07:00.481Z,95374.00
2023-05-18T07:08:00.512Z,95374.00
2023-05-18T07:09:00.491Z,95376.00
2023-05-18T07:10:00.466Z,95372.00
2023-05-18T07:11:00.538Z,95374.00
2023-05-18T07:12:00.619Z,95374.00
2023-05-18T07:13:00.643Z,95374.00
2023-05-18T07:14:00.639Z,95374.00
2023-05-18T07:15:00.639Z,95372.00
2023-05-18T07:16:00.713Z,95372.00
2023-05-18T07:17:00.643Z,95374.00
2023-05-18T07:18:00.739Z,95372.00
2023-05-18T07:19:00.833Z,95368.00
2023-05-18T07:20:00.898Z,95366.00
2023-05-18T07:21:00.971Z,95364.00
2023-05-18T07:22:00.985Z,95366.00
2023-05-18T07:23:01.000Z,95364.00
2023-05-18T07:24:00.996Z,95362.00
2023-05-18T07:25:01.109Z,95364.00
2023-05-18T07:26:01.015Z,95362.00
2023-05-18T07:27:01.207Z,95360.00
2023-05-18T07:28:01.208Z,95360.00
2023-05-18T07:29:01.251Z,95360.00
2023-05-18T07:30:01.559Z,95360.00
2023-05-18T07:31:01.496Z,95360.00
2023-05-18T07:32:01.620Z,95358.00
2023-05-18T07:33:01.721Z,95360.00
2023-05-18T07:34:01.544Z,95360.00
2023-05-18T07:35:02.061Z,95360.00
2023-05-18T07:36:01.593Z,95360.00
2023-05-18T07:37:01.562Z,95360.00
2023-05-18T07:38:01.624Z,95360.00
2023-05-18T07:39:01.556Z,95360.00
2023-05-18T07:40:01.572Z,95360.00
2023-05-18T07:41:01.657Z,95356.00
2023-05-18T07:42:01.717Z,95356.00
2023-05-18T07:43:01.847Z,95358.00
2023-05-18T07:44:01.920Z,95358.00
2023-05-18T07:45:01.929Z,95358.00
2023-05-18T07:46:01.941Z,95358.00
2023-05-18T07:47:02.024Z,95356.00
2023-05-18T07:48:02.033Z,95354.00
2023-05-18T07:49:01.953Z,95356.00
2023-05-18T07:50:02.083Z,95358.00
2023-05-18T07:51:02.135Z,95358.00
2023-05-18T07:52:02.081Z,95356.00
2023-05-18T07:53:02.111Z,95354.00
2023-05-18T07:54:03.179Z,95358.00
2023-05-18T07:55:02.597Z,95358.00
2023-05-18T07:56:02.084Z,95356.00
2023-05-18T07:57:02.112Z,95356.00
2023-05-18T07:58:02.092Z,95356.00
2023-05-18T07:59:02.114Z,95354.00
2023-05-18T08:00:02.110Z,95354.00
2023-05-18T08:01:02.147Z,95352.00
2023-05-18T08:02:02.370Z,95352.00
2023-05-18T08:03:02.611Z,95352.00
2023-05-18T08:04:02.534Z,95350.00
2023-05-18T08:05:02.457Z,95350.00
2023-05-18T08:06:02.440Z,95350.00
2023-05-18T08:07:02.435Z,95350.00
2023-05-18T08:08:03.385Z,95348.00
2023-05-18T08:09:02.449Z,95350.00
2023-05-18T08:10:02.472Z,95347.00
2023-05-18T08:11:02.425Z,95352.00
2023-05-18T08:12:02.449Z,95352.00
2023-05-18T08:13:02.447Z,95354.00
2023-05-18T08:14:02.429Z,95348.00
2023-05-18T08:15:02.381Z,95352.00
2023-05-18T08:16:11.123Z,95350.00
2023-05-18T08:17:03.512Z,95352.00
2023-05-18T08:18:02.397Z,95350.00
2023-05-18T08:19:02.442Z,95350.00
2023-05-18T08:20:02.331Z,95350.00
2023-05-18T08:21:02.365Z,95350.00
2023-05-18T08:22:02.353Z,95350.00
2023-05-18T08:23:02.336Z,95348.00
2023-05-18T08:24:02.337Z,95348.00
2023-05-18T08:25:02.589Z,95348.00
2023-05-18T08:26:02.371Z,95352.00
2023-05-18T08:27:02.297Z,95352.00
2023-05-18T08:28:02.315Z,95352.00
2023-05-18T08:29:02.315Z,95352.00
2023-05-18T08:30:02.603Z,95354.00
2023-05-18T08:31:02.293Z,95354.00
2023-05-18T08:32:02.319Z,95348.00
2023-05-18T08:33:02.347Z,95356.00
2023-05-18T08:34:02.281Z,95354.00
2023-05-18T08:35:02.233Z,95358.00
2023-05-18T08:36:02.308Z,95358.00
2023-05-18T08:37:02.238Z,95358.00
2023-05-18T08:38:04.035Z,95358.00
2023-05-18T08:39:02.248Z,95358.00
2023-05-18T08:40:02.212Z,95356.00
2023-05-18T08:41:02.236Z,95356.00
2023-05-18T08:42:02.236Z,95356.00
2023-05-18T08:43:02.178Z,95352.00
2023-05-18T08:44:02.245Z,95354.00
2023-05-18T08:45:02.223Z,95358.00
2023-05-18T08:46:02.211Z,95356.00
2023-05-18T08:47:02.209Z,95356.00
2023-05-18T08:48:02.291Z,95356.00
2023-05-18T08:49:02.364Z,95356.00
2023-05-18T08:50:02.166Z,95356.00
2023-05-18T08:51:02.166Z,95354.00
2023-05-18T08:52:02.150Z,95354.00
2023-05-18T08:53:02.122Z,95354.00
2023-05-18T08:54:02.157Z,95354.00
2023-05-18T08:55:02.118Z,95352.00
2023-05-18T08:56:02.121Z,95350.00
2023-05-18T08:57:02.122Z,95350.00
2023-05-18T08:58:02.196Z,95348.00
2023-05-18T08:59:02.072Z,95347.00
2023-05-18T09:00:02.099Z,95348.00
2023-05-18T09:01:02.097Z,95345.00
2023-05-18T09:02:02.142Z,95347.00
2023-05-18T09:03:02.135Z,95345.00
2023-05-18T09:04:02.095Z,95343.00
2023-05-18T09:05:02.177Z,95341.00
2023-05-18T09:06:02.061Z,95341.00
2023-05-18T09:07:02.093Z,95343.00
2023-05-18T09:08:02.052Z,95343.00
2023-05-18T09:09:02.063Z,95341.00
2023-05-18T09:10:02.064Z,95341.00
2023-05-18T09:11:02.022Z,95343.00
2023-05-18T09:12:02.005Z,95343.00
2023-05-18T09:13:02.009Z,95343.00
2023-05-18T09:14:02.018Z,95343.00
2023-05-18T09:15:02.027Z,95341.00
2023-05-18T09:16:01.997Z,95343.00
2023-05-18T09:17:02.012Z,95343.00
2023-05-18T09:18:02.042Z,95343.00
2023-05-18T09:19:02.015Z,95343.00
2023-05-18T09:20:01.985Z,95345.00
2023-05-18T09:21:01.966Z,95345.00
2023-05-18T09:22:01.943Z,95343.00
2023-05-18T09:23:01.932Z,95345.00
2023-05-18T09:24:01.948Z,95347.00
2023-05-18T09:25:01.948Z,95348.00
2023-05-18T09:26:01.923Z,95347.00
2023-05-18T09:27:01.925Z,95343.00
2023-05-18T09:28:02.614Z,95345.00
2023-05-18T09:29:01.889Z,95347.00
2023-05-18T09:30:02.116Z,95345.00
2023-05-18T09:31:01.908Z,95343.00
2023-05-18T09:32:02.007Z,95341.00
2023-05-18T09:33:01.967Z,95341.00
2023-05-18T09:34:01.914Z,95339.00
2023-05-18T09:35:02.116Z,95339.00
2023-05-18T09:36:01.908Z,95339.00
2023-05-18T09:37:01.870Z,95341.00
2023-05-18T09:38:01.839Z,95339.00
2023-05-18T09:39:01.842Z,95337.00
2023-05-18T09:40:01.834Z,95337.00
2023-05-18T09:41:01.817Z,95337.00
2023-05-18T09:42:01.821Z,95337.00
2023-05-18T09:43:01.806Z,95335.00
2023-05-18T09:44:01.796Z,95335.00
2023-05-18T09:45:02.132Z,95335.00
2023-05-18T09:46:01.798Z,95335.00
2023-05-18T09:47:02.008Z,95333.00
2023-05-18T09:48:01.815Z,95331.00
2023-05-18T09:49:01.773Z,95331.00
2023-05-18T09:50:01.767Z,95331.00
2023-05-18T09:51:01.742Z,95331.00
2023-05-18T09:52:01.776Z,95329.00
2023-05-18T09:53:01.730Z,95327.00
2023-05-18T09:54:01.778Z,95329.00
2023-05-18T09:55:01.763Z,95327.00
2023-05-18T09:56:01.728Z,95329.00
2023-05-18T09:57:10.211Z,95327.00
2023-05-18T09:58:02.741Z,95329.00
2023-05-18T09:59:01.727Z,95327.00
2023-05-18T10:00:02.149Z,95327.00
2023-05-18T10:01:01.719Z,95327.00
2023-05-18T10:02:01.721Z,95327.00
2023-05-18T10:03:01.726Z,95325.00
2023-05-18T10:04:01.742Z,95329.00
2023-05-18T10:05:01.693Z,95329.00
2023-05-18T10:06:01.648Z,95327.00
2023-05-18T10:07:01.707Z,95325.00
2023-05-18T10:08:01.667Z,95325.00
2023-05-18T10:09:01.644Z,95323.00
2023-05-18T10:10:01.661Z,95323.00
2023-05-18T10:11:01.659Z,95323.00
2023-05-18T10:12:01.734Z,95325.00
2023-05-18T10:13:01.746Z,95323.00
2023-05-18T10:14:01.759Z,95325.00
2023-05-18T10:15:01.784Z,95325.00
2023-05-18T10:16:01.791Z,95325.00
2023-05-18T10:17:14.212Z,95325.00
2023-05-18T10:18:02.803Z,95325.00
2023-05-18T10:19:01.799Z,95323.00
2023-05-18T10:20:01.774Z,95323.00
2023-05-18T10:21:01.759Z,95321.00
2023-05-18T10:22:01.755Z,95319.00
2023-05-18T10:23:01.753Z,95321.00
2023-05-18T10:24:01.722Z,95317.00
2023-05-18T10:25:01.699Z,95321.00
2023-05-18T10:26:01.727Z,95317.00
2023-05-18T10:27:01.704Z,95319.00
2023-05-18T10:28:01.715Z,95317.00
2023-05-18T10:29:01.689Z,95315.00
2023-05-18T10:30:01.692Z,95315.00
2023-05-18T10:31:01.703Z,95315.00
2023-05-18T10:32:03.815Z,95313.00
2023-05-18T10:33:01.766Z,95313.00
2023-05-18T10:34:01.648Z,95315.00
2023-05-18T10:35:01.634Z,95315.00
2023-05-18T10:36:02.158Z,95315.00
2023-05-18T10:37:01.633Z,95313.00
2023-05-18T10:38:01.612Z,95311.00
2023-05-18T10:39:01.619Z,95309.00
2023-05-18T10:40:01.630Z,95311.00
2023-05-18T10:41:01.676Z,95313.00
2023-05-18T10:42:01.619Z,95313.00
2023-05-18T10:43:01.626Z,95317.00
2023-05-18T10:44:01.613Z,95311.00
2023-05-18T10:45:01.743Z,95311.00
2023-05-18T10:46:01.801Z,95313.00
2023-05-18T10:47:01.685Z,95311.00
2023-05-18T10:48:01.642Z,95315.00
2023-05-18T10:49:01.543Z,95311.00
2023-05-18T10:50:01.626Z,95311.00
2023-05-18T10:51:01.553Z,95313.00
2023-05-18T10:52:01.554Z,95311.00
2023-05-18T10:53:01.563Z,95311.00
2023-05-18T10:54:01.534Z,95311.00
2023-05-18T10:55:01.532Z,95315.00
2023-05-18T10:56:01.670Z,95313.00
2023-05-18T10:57:01.497Z,95311.00
2023-05-18T10:58:01.493Z,95311.00
2023-05-18T10:59:01.526Z,95315.00
2023-05-18T11:00:01.531Z,95313.00
2023-05-18T11:01:01.613Z,95315.00
2023-05-18T11:02:01.531Z,95315.00
2023-05-18T11:03:01.490Z,95317.00
2023-05-18T11:04:01.491Z,95313.00
2023-05-18T11:05:01.510Z,95313.00
2023-05-18T11:06:01.639Z,95319.00
2023-05-18T11:07:01.481Z,95319.00
2023-05-18T11:08:01.487Z,95317.00
2023-05-18T11:09:01.457Z,95313.00
2023-05-18T11:10:01.471Z,95315.00
2023-05-18T11:11:01.685Z,95311.00
2023-05-18T11:12:01.447Z,95313.00
2023-05-18T11:13:01.430Z,95311.00
2023-05-18T11:14:01.419Z,95313.00
2023-05-18T11:15:01.406Z,95311.00
2023-05-18T11:16:01.694Z,95311.00
2023-05-18T11:17:01.412Z,95307.00
2023-05-18T11:18:01.453Z,95309.00
2023-05-18T11:19:01.417Z,95311.00
2023-05-18T11:20:01.396Z,95311.00
2023-05-18T11:21:01.665Z,95313.00
2023-05-18T11:22:01.423Z,95311.00
2023-05-18T11:23:01.467Z,95311.00
2023-05-18T11:24:01.512Z,95309.00
2023-05-18T11:25:01.593Z,95305.00
2023-05-18T11:26:01.681Z,95309.00
2023-05-18T11:27:01.650Z,95309.00
2023-05-18T11:28:01.747Z,95311.00
2023-05-18T11:29:01.771Z,95311.00
2023-05-18T11:30:14.867Z,95309.00
2023-05-18T11:31:03.163Z,95307.00
2023-05-18T11:32:02.558Z,95313.00
2023-05-18T11:33:01.894Z,95311.00
2023-05-18T11:34:01.768Z,95313.00
2023-05-18T11:35:01.783Z,95315.00
2023-05-18T11:36:01.787Z,95311.00
2023-05-18T11:37:01.758Z,95319.00
2023-05-18T11:38:01.811Z,95315.00
2023-05-18T11:39:01.750Z,95313.00
2023-05-18T11:40:04.547Z,95315.00
2023-05-18T11:41:02.820Z,95313.00
2023-05-18T11:42:01.790Z,95311.00
2023-05-18T11:43:01.755Z,95307.00
2023-05-18T11:44:01.773Z,95307.00
2023-05-18T11:45:01.785Z,95305.00
2023-05-18T11:46:01.788Z,95307.00